createdAt,value
2023-03-12T00:02:40.050Z,100002.91
2023-03-12T00:07:40.714Z,100005.28
2023-03-12T00:12:41.597Z,99998.38
2023-03-12T00:17:43.659Z,100009.56
2023-03-12T00:22:44.364Z,100013.97
2023-03-12T00:27:45.082Z,100013.06
2023-03-12T00:32:47.160Z,100014.50
2023-03-12T00:37:47.871Z,100016.94
2023-03-12T00:42:48.518Z,100013.03
2023-03-12T00:47:50.543Z,100012.84
2023-03-12T00:52:51.232Z,100023.84
2023-03-12T00:57:51.920Z,100022.94
2023-03-12T01:02:53.976Z,100016.03
2023-03-12T01:07:54.644Z,100014.25
2023-03-12T01:12:55.332Z,100007.56
2023-03-12T01:17:57.359Z,100015.97
2023-03-12T01:22:58.150Z,100012.41
2023-03-12T01:27:58.964Z,100012.75
2023-03-12T01:33:01.034Z,100016.38
2023-03-12T01:38:01.705Z,100023.31
2023-03-12T01:43:26.775Z,100023.28
2023-03-12T01:48:33.560Z,100019.72
2023-03-12T01:53:35.274Z,100024.84
2023-03-12T01:58:39.268Z,100028.91
2023-03-12T02:03:42.077Z,100025.31
2023-03-12T02:08:46.644Z,100031.13
2023-03-12T02:13:47.678Z,100013.81
2023-03-12T02:18:53.658Z,100020.72
2023-03-12T02:24:02.770Z,100021.41
2023-03-12T02:29:10.136Z,100030.78
2023-03-12T02:34:11.222Z,100026.56
2023-03-12T02:39:12.987Z,100038.41
2023-03-12T02:44:19.187Z,100039.06
2023-03-12T02:49:25.541Z,100045.13
2023-03-12T02:54:27.191Z,100047.47
2023-03-12T02:59:29.449Z,100045.66
2023-03-12T03:04:34.796Z,100055.03
2023-03-12T03:09:35.854Z,100063.56
2023-03-12T03:14:38.062Z,100058.97
2023-03-12T03:19:38.804Z,100064.94
2023-03-12T03:24:39.487Z,100063.84
2023-03-12T03:29:42.125Z,100069.03
2023-03-12T03:34:42.893Z,100084.25
2023-03-12T03:39:43.964Z,100086.59
2023-03-12T03:44:47.006Z,100089.09
2023-03-12T03:49:48.124Z,100087.47
2023-03-12T03:54:49.552Z,100087.66
2023-03-12T03:59:51.682Z,100095.53
2023-03-12T04:04:52.815Z,100089.06
2023-03-12T04:09:53.584Z,100097.47
2023-03-12T04:14:55.613Z,100100.59
2023-03-12T04:19:56.402Z,100103.44
2023-03-12T04:24:57.769Z,100099.19
2023-03-12T04:30:00.197Z,100105.09
2023-03-12T04:35:01.124Z,100107.31
2023-03-12T04:40:02.502Z,100097.00
2023-03-12T04:45:06.362Z,100106.22
2023-03-12T04:50:09.058Z,100110.19
2023-03-12T04:55:10.390Z,100118.88
2023-03-12T05:00:14.034Z,100121.03
2023-03-12T05:05:16.709Z,100124.72
2023-03-12T05:10:17.677Z,100126.00
2023-03-12T05:15:20.066Z,100128.09
2023-03-12T05:20:21.175Z,100126.59
2023-03-12T05:25:22.416Z,100128.34
2023-03-12T05:30:24.698Z,100127.66
2023-03-12T05:35:25.711Z,100125.56
2023-03-12T05:40:26.461Z,100130.81
2023-03-12T05:45:28.642Z,100141.19
2023-03-12T05:50:30.971Z,100138.50
2023-03-12T05:55:35.037Z,100132.59
2023-03-12T06:00:38.226Z,100135.09
2023-03-12T06:05:40.677Z,100132.25
2023-03-12T06:10:41.433Z,100135.09
2023-03-12T06:15:43.605Z,100134.63
2023-03-12T06:20:44.388Z,100128.44
2023-03-12T06:25:45.994Z,100134.84
2023-03-12T06:30:48.888Z,100131.72
2023-03-12T06:35:49.681Z,100134.69
2023-03-12T06:40:58.263Z,100129.84
2023-03-12T06:46:01.602Z,100137.91
2023-03-12T06:51:02.321Z,100137.31
2023-03-12T06:56:03.511Z,100135.91
2023-03-12T07:01:06.532Z,100138.00
2023-03-12T07:06:14.974Z,100135.66
2023-03-12T07:11:16.249Z,100126.84
2023-03-12T07:16:18.335Z,100123.94
2023-03-12T07:21:22.843Z,100122.56
2023-03-12T07:26:23.552Z,100125.72
2023-03-12T07:31:25.638Z,100132.09
2023-03-12T07:36:26.468Z,100123.06
2023-03-12T07:41:27.279Z,100134.47
2023-03-12T07:46:29.328Z,100128.13
2023-03-12T07:51:30.249Z,100129.50
2023-03-12T07:56:30.993Z,100129.50
2023-03-12T08:01:33.274Z,100129.84
2023-03-12T08:06:33.939Z,100129.28
2023-03-12T08:11:35.596Z,100138.06
2023-03-12T08:16:37.609Z,100137.28
2023-03-12T08:21:38.296Z,100132.22
2023-03-12T08:26:39.072Z,100135.75
2023-03-12T08:31:53.803Z,100137.66
2023-03-12T08:37:02.936Z,100124.97
2023-03-12T08:42:03.986Z,100130.19
2023-03-12T08:47:06.322Z,100125.22
2023-03-12T08:52:07.029Z,100130.44
2023-03-12T08:57:07.797Z,100128.75
2023-03-12T09:02:12.096Z,100115.81
2023-03-12T09:07:14.116Z,100110.66
2023-03-12T09:12:14.812Z,100096.81
2023-03-12T09:17:23.444Z,100103.69
2023-03-12T09:22:44.515Z,100112.38
2023-03-12T09:27:48.711Z,100096.00
2023-03-12T09:32:50.692Z,100091.72
2023-03-12T09:37:51.647Z,100090.03
2023-03-12T09:42:56.121Z,100088.28
2023-03-12T09:48:00.256Z,100082.25
2023-03-12T09:53:09.821Z,100079.69
2023-03-12T09:58:14.950Z,100083.13
2023-03-12T10:03:43.643Z,100074.50
2023-03-12T10:08:58.877Z,100064.19
2023-03-12T10:14:23.374Z,100064.19
2023-03-12T10:19:40.124Z,100063.34
2023-03-12T10:24:55.803Z,100043.53
2023-03-12T10:29:56.704Z,100037.19
2023-03-12T10:35:01.747Z,100028.50
2023-03-12T10:40:02.885Z,100027.75
2023-03-12T10:45:20.480Z,100026.84
2023-03-12T10:50:24.637Z,100021.75
2023-03-12T10:55:29.369Z,100018.97
2023-03-12T11:00:33.059Z,100005.34
2023-03-12T11:05:51.440Z,100007.84
2023-03-12T11:10:52.466Z,99991.53
2023-03-12T11:15:54.774Z,99994.69
2023-03-12T11:20:58.811Z,99991.59
2023-03-12T11:26:03.033Z,99979.28
2023-03-12T11:31:06.155Z,99978.84
2023-03-12T11:36:22.881Z,99974.06
2023-03-12T11:41:43.288Z,99961.47
2023-03-12T11:46:56.826Z,99949.72
2023-03-12T11:52:07.178Z,99932.63
2023-03-12T11:57:20.630Z,99918.25
2023-03-12T12:02:41.828Z,99910.13
2023-03-12T12:07:54.098Z,99894.69
2023-03-12T12:13:05.371Z,99882.44
2023-03-12T12:18:25.658Z,99876.84
2023-03-12T12:23:43.720Z,99858.06
2023-03-12T12:29:06.477Z,99852.22
2023-03-12T12:34:22.497Z,99851.66
2023-03-12T12:39:33.260Z,99828.56
2023-03-12T12:44:37.972Z,99826.38
2023-03-12T12:49:45.022Z,99816.06
2023-03-12T12:54:56.384Z,99828.66
2023-03-12T13:00:14.230Z,99825.50
2023-03-12T13:05:20.847Z,99814.22
2023-03-12T13:10:48.933Z,99819.00
2023-03-12T13:16:18.641Z,99816.50
2023-03-12T13:21:28.722Z,99813.28
2023-03-12T13:26:39.581Z,99806.75
2023-03-12T13:31:41.830Z,99808.03
2023-03-12T13:36:46.076Z,99809.66
2023-03-12T13:41:50.602Z,99809.19
2023-03-12T13:47:01.455Z,99808.06
2023-03-12T13:52:17.762Z,99801.88
2023-03-12T13:57:41.261Z,99804.06
2023-03-12T14:02:49.642Z,99808.88
2023-03-12T14:08:14.702Z,99806.53
2023-03-12T14:13:29.039Z,99809.06
2023-03-12T14:18:35.022Z,99813.13
2023-03-12T14:23:39.331Z,99794.34
2023-03-12T14:28:43.105Z,99793.72
2023-03-12T14:33:53.400Z,99798.09
2023-03-12T14:39:01.868Z,99792.03
2023-03-12T14:44:19.794Z,99793.03
2023-03-12T14:49:21.836Z,99796.63
2023-03-12T14:54:25.064Z,99797.91
2023-03-12T14:59:31.317Z,99778.09
2023-03-12T15:04:35.373Z,99790.28
2023-03-12T15:09:38.026Z,99792.22
2023-03-12T15:14:43.663Z,99789.72
2023-03-12T15:19:45.118Z,99781.16
2023-03-12T15:24:46.583Z,99768.38
2023-03-12T15:29:49.956Z,99768.41
2023-03-12T15:34:51.228Z,99758.09
2023-03-12T15:39:54.713Z,99723.22
2023-03-12T15:44:58.693Z,99724.34
2023-03-12T15:50:03.585Z,99712.31
2023-03-12T15:55:22.485Z,99709.63
2023-03-12T16:00:27.805Z,99714.81
2023-03-12T16:05:31.776Z,99698.41
2023-03-12T16:10:37.367Z,99700.16
2023-03-12T16:15:40.060Z,99693.34
2023-03-12T16:20:41.197Z,99691.56
2023-03-12T16:25:44.573Z,99688.22
2023-03-12T16:30:46.917Z,99691.56
2023-03-12T16:35:48.025Z,99678.72
2023-03-12T16:40:50.742Z,99702.78
2023-03-12T16:45:54.222Z,99700.25
2023-03-12T16:50:57.992Z,99688.16
2023-03-12T16:56:01.095Z,99694.97
2023-03-12T17:01:03.310Z,99692.41
2023-03-12T17:06:07.426Z,99685.56
2023-03-12T17:11:16.250Z,99686.44
2023-03-12T17:16:18.532Z,99685.59
2023-03-12T17:21:20.321Z,99681.31
2023-03-12T17:26:21.043Z,99704.53
2023-03-12T17:31:26.886Z,99704.50
2023-03-12T17:36:27.614Z,99720.81
2023-03-12T17:41:28.347Z,99718.63
2023-03-12T17:46:30.784Z,99708.31
2023-03-12T17:51:31.601Z,99702.34
2023-03-12T17:56:32.264Z,99704.91
2023-03-12T18:01:34.530Z,99726.41
2023-03-12T18:06:35.213Z,99721.91
2023-03-12T18:11:35.930Z,99711.59
2023-03-12T18:16:38.426Z,99702.03
2023-03-12T18:21:39.146Z,99709.81
2023-03-12T18:26:39.887Z,99708.03
2023-03-12T18:31:41.982Z,99719.16
2023-03-12T18:36:42.932Z,99720.03
2023-03-12T18:41:43.695Z,99718.25
2023-03-12T18:46:47.003Z,99706.16
2023-03-12T18:51:48.262Z,99715.63
2023-03-12T18:56:49.219Z,99715.50
2023-03-12T19:01:51.390Z,99715.50
2023-03-12T19:06:52.219Z,99734.19
2023-03-12T19:11:52.910Z,99720.19
2023-03-12T19:16:54.987Z,99730.38
2023-03-12T19:21:57.335Z,99733.81
2023-03-12T19:26:58.086Z,99716.66
2023-03-12T19:32:00.217Z,99716.72
2023-03-12T19:37:00.963Z,99716.34
2023-03-12T19:42:01.662Z,99713.63
2023-03-12T19:47:06.989Z,99714.50
2023-03-12T19:52:07.686Z,99708.97
2023-03-12T19:57:08.416Z,99727.09
2023-03-12T20:02:13.292Z,99734.56
2023-03-12T20:07:14.040Z,99730.03
2023-03-12T20:12:14.773Z,99734.38
2023-03-12T20:17:17.134Z,99741.19
2023-03-12T20:22:17.865Z,99736.03
2023-03-12T20:27:18.603Z,99742.09
2023-03-12T20:32:20.732Z,99750.53
2023-03-12T20:37:21.480Z,99739.47
2023-03-12T20:42:22.176Z,99728.19
2023-03-12T20:47:24.991Z,99729.00
2023-03-12T20:52:25.846Z,99737.66
2023-03-12T20:57:26.739Z,99736.59
2023-03-12T21:02:28.926Z,99717.34
2023-03-12T21:07:29.718Z,99725.19
2023-03-12T21:12:30.414Z,99734.38
2023-03-12T21:17:33.697Z,99732.03
2023-03-12T21:22:34.432Z,99733.81
2023-03-12T21:27:48.038Z,99732.97
2023-03-12T21:32:52.265Z,99722.09
2023-03-12T21:37:54.421Z,99717.09
2023-03-12T21:42:55.174Z,99709.91
2023-03-12T21:47:57.180Z,99704.00
2023-03-12T21:52:57.919Z,99699.34
2023-03-12T21:57:58.706Z,99700.28
2023-03-12T22:03:00.737Z,99682.22
2023-03-12T22:08:01.470Z,99688.28
2023-03-12T22:13:02.169Z,99679.25
2023-03-12T22:18:04.385Z,99680.75
2023-03-12T22:23:05.128Z,99685.06
2023-03-12T22:28:05.997Z,99676.22
2023-03-12T22:33:08.013Z,99668.78
2023-03-12T22:38:08.766Z,99662.63
2023-03-12T22:43:09.546Z,99657.22
2023-03-12T22:48:11.597Z,99660.75
2023-03-12T22:53:12.223Z,99660.78
2023-03-12T22:58:13.050Z,99645.63
2023-03-12T23:03:15.128Z,99643.88
2023-03-12T23:08:15.786Z,99650.84
2023-03-12T23:13:16.479Z,99649.91
2023-03-12T23:18:19.003Z,99647.31
2023-03-12T23:23:19.645Z,99641.34
2023-03-12T23:28:20.282Z,99644.63
2023-03-12T23:33:22.320Z,99639.63
2023-03-12T23:38:23.149Z,99635.22
2023-03-12T23:43:24.040Z,99635.88
2023-03-12T23:48:26.512Z,99627.22
2023-03-12T23:53:27.176Z,99633.22
2023-03-12T23:58:29.206Z,99632.59
